This is the latest recevied weather packets stored in our database for station/object W0DP. If no packets are shown the sender has not sent any weather packets the latest 10 day(s).
| Time | Temp. | Humidity | Pressure | Rain* | Wind** | Luminosity | Snow |
|---|---|---|---|---|---|---|---|
| 1777196416 | 12.22° C | 75% | 1015.5 hPa | 0 mm | - | - | - |
| 1777194015 | 12.78° C | 78% | 1015.5 hPa | 0 mm | - | - | - |
| 1777191015 | 12.22° C | 80% | 1015.7 hPa | 0 mm | - | - | - |
| 1777190415 | 12.22° C | 79% | 1015.4 hPa | 0 mm | - | - | - |
| 1777189217 | 12.78° C | 74% | 1015.4 hPa | 0 mm | - | - | - |
| 1777188617 | 12.78° C | 75% | 1015.2 hPa | 0 mm | - | - | - |
| 1777185617 | 12.78° C | 76% | 1015.1 hPa | 0 mm | - | - | - |
| 1777180217 | 13.89° C | 74% | 1014.7 hPa | 0 mm | - | - | - |
| 1777176017 | 15° C | 68% | 1014.6 hPa | 0 mm | - | - | - |
| 1777173617 | 15.56° C | 65% | 1014.3 hPa | 0 mm | - | - | - |
| 1777170617 | 16.67° C | 62% | 1014.3 hPa | 0 mm | - | - | - |
| 1777166416 | 17.78° C | 56% | 1013.6 hPa | 0 mm | - | - | - |
| 1777165857 | 18.33° C | 56% | 1013.3 hPa | 0 mm | - | - | - |
| 1777165216 | 18.33° C | 56% | 1013.1 hPa | 0 mm | - | - | - |
| 1777164636 | 18.33° C | 56% | 1013.2 hPa | 0 mm | - | - | - |
| 1777164016 | 18.89° C | 54% | 1013.3 hPa | 0 mm | - | - | - |
| 1777156816 | 21.11° C | 45% | 1013.2 hPa | 0 mm | - | - | - |
| 1777155616 | 21.67° C | 45% | 1013.3 hPa | 0 mm | - | - | - |
| 1777154416 | 21.67° C | 43% | 1013.4 hPa | 0 mm | - | - | - |
| 1777149616 | 21.11° C | 47% | 1013.9 hPa | 0 mm | - | - | - |
| 1777149015 | 20.56° C | 46% | 1014.1 hPa | 0 mm | - | - | - |
| 1777147215 | 21.11° C | 44% | 1014.3 hPa | 0 mm | - | - | - |
| 1777146616 | 20.56° C | 46% | 1014.5 hPa | 0 mm | - | - | - |
| 1777144835 | 20.56° C | 43% | 1014.8 hPa | 0 mm | - | - | - |
| 1777142415 | 19.44° C | 45% | 1014.9 hPa | 0 mm | - | - | - |
* Rain latest hour (hover to see other rain measurements)
** Current wind speed in m/s (hover to see current wind gust speed)